sensor_id;sensor_type;location;lat;lon;timestamp;pressure;altitude;pressure_sealevel;temperature;humidity
56334;BME280;42240;53.626;55.886;2023-05-23T00:00:51;76703.13;;;-145.10;95.64
56334;BME280;42240;53.626;55.886;2023-05-23T00:02:24;76707.09;;;-145.10;96.95
56334;BME280;42240;53.626;55.886;2023-05-23T00:03:57;76722.91;;;-145.10;99.80
56334;BME280;42240;53.626;55.886;2023-05-23T00:05:31;76722.91;;;-145.10;100.00
56334;BME280;42240;53.626;55.886;2023-05-23T00:07:05;76738.72;;;-145.10;100.00
56334;BME280;42240;53.626;55.886;2023-05-23T00:08:38;76734.78;;;-145.10;100.00
56334;BME280;42240;53.626;55.886;2023-05-23T00:10:12;76736.75;;;-145.10;100.00
56334;BME280;42240;53.626;55.886;2023-05-23T00:11:46;76722.91;;;-145.10;100.00
56334;BME280;42240;53.626;55.886;2023-05-23T00:13:19;76711.03;;;-145.10;98.85
56334;BME280;42240;53.626;55.886;2023-05-23T00:14:53;76709.06;;;-145.10;97.79
56334;BME280;42240;53.626;55.886;2023-05-23T00:16:28;76711.03;;;-145.10;97.31
56334;BME280;42240;53.626;55.886;2023-05-23T00:18:03;76713.03;;;-145.10;97.59
56334;BME280;42240;53.626;55.886;2023-05-23T00:19:39;76715.00;;;-145.10;97.17
56334;BME280;42240;53.626;55.886;2023-05-23T00:21:13;76715.00;;;-145.10;97.22
56334;BME280;42240;53.626;55.886;2023-05-23T00:22:47;76703.13;;;-145.10;93.67
56334;BME280;42240;53.626;55.886;2023-05-23T00:24:21;76681.38;;;-145.10;92.09
56334;BME280;42240;53.626;55.886;2023-05-23T00:25:55;76671.50;;;-145.10;92.29
56334;BME280;42240;53.626;55.886;2023-05-23T00:27:30;76671.50;;;-145.10;91.80
56334;BME280;42240;53.626;55.886;2023-05-23T00:29:04;76661.59;;;-145.10;92.11
56334;BME280;42240;53.626;55.886;2023-05-23T00:30:37;76655.66;;;-145.10;91.21
56334;BME280;42240;53.626;55.886;2023-05-23T00:32:11;76655.66;;;-145.10;90.00
56334;BME280;42240;53.626;55.886;2023-05-23T00:33:45;76655.66;;;-145.10;88.85
56334;BME280;42240;53.626;55.886;2023-05-23T00:35:22;76655.66;;;-145.10;88.82
56334;BME280;42240;53.626;55.886;2023-05-23T00:36:58;76667.53;;;-145.10;87.95
56334;BME280;42240;53.626;55.886;2023-05-23T00:38:32;76665.56;;;-145.10;88.17
56334;BME280;42240;53.626;55.886;2023-05-23T00:40:06;76655.66;;;-145.10;87.68
56334;BME280;42240;53.626;55.886;2023-05-23T00:41:40;76675.44;;;-145.10;88.65
56334;BME280;42240;53.626;55.886;2023-05-23T00:43:14;76695.22;;;-145.10;88.03
56334;BME280;42240;53.626;55.886;2023-05-23T00:44:48;76659.63;;;-145.10;87.33
56334;BME280;42240;53.626;55.886;2023-05-23T00:46:21;76659.63;;;-145.10;89.09
56334;BME280;42240;53.626;55.886;2023-05-23T00:47:55;76635.91;;;-145.10;90.58
56334;BME280;42240;53.626;55.886;2023-05-23T00:49:31;76631.94;;;-145.10;88.71
56334;BME280;42240;53.626;55.886;2023-05-23T00:51:05;76578.56;;;-145.10;87.04
56334;BME280;42240;53.626;55.886;2023-05-23T00:52:39;76544.94;;;-145.10;85.17
56334;BME280;42240;53.626;55.886;2023-05-23T00:54:14;76529.13;;;-145.10;85.49
56334;BME280;42240;53.626;55.886;2023-05-23T00:55:49;76533.06;;;-145.10;84.34
56334;BME280;42240;53.626;55.886;2023-05-23T00:57:24;76540.97;;;-145.10;85.57
56334;BME280;42240;53.626;55.886;2023-05-23T00:58:58;76497.47;;;-145.10;84.48
56334;BME280;42240;53.626;55.886;2023-05-23T01:00:33;76497.47;;;-145.10;83.05
56334;BME280;42240;53.626;55.886;2023-05-23T01:02:07;76473.75;;;-145.10;80.79
56334;BME280;42240;53.626;55.886;2023-05-23T01:03:41;76434.19;;;-145.10;79.29
56334;BME280;42240;53.626;55.886;2023-05-23T01:05:18;76394.66;;;-145.10;78.34
56334;BME280;42240;53.626;55.886;2023-05-23T01:06:55;76378.84;;;-145.10;75.92
56334;BME280;42240;53.626;55.886;2023-05-23T01:08:28;76339.28;;;-145.10;73.68
56334;BME280;42240;53.626;55.886;2023-05-23T01:10:03;76311.63;;;-145.10;72.21
56334;BME280;42240;53.626;55.886;2023-05-23T01:11:57;76272.06;;;-145.10;70.88
56334;BME280;42240;53.626;55.886;2023-05-23T01:13:50;76260.22;;;-145.10;69.89
56334;BME280;42240;53.626;55.886;2023-05-23T01:15:41;76187.03;;;-145.10;66.49
56334;BME280;42240;53.626;55.886;2023-05-23T01:17:34;76161.34;;;-145.10;64.45
56334;BME280;42240;53.626;55.886;2023-05-23T01:20:56;76086.22;;;-145.10;63.74
56334;BME280;42240;53.626;55.886;2023-05-23T01:24:49;76030.84;;;-145.10;60.34
56334;BME280;42240;53.626;55.886;2023-05-23T01:26:40;76005.16;;;-145.10;58.36
56334;BME280;42240;53.626;55.886;2023-05-23T01:28:17;75943.88;;;-145.10;54.33
56334;BME280;42240;53.626;55.886;2023-05-23T01:29:56;75910.25;;;-145.10;52.93
56334;BME280;42240;53.626;55.886;2023-05-23T01:31:32;75904.31;;;-145.10;51.91
56334;BME280;42240;53.626;55.886;2023-05-23T01:33:07;75876.63;;;-145.10;51.02
56334;BME280;42240;53.626;55.886;2023-05-23T01:34:41;75856.88;;;-145.10;50.54
56334;BME280;42240;53.626;55.886;2023-05-23T01:36:16;75815.34;;;-145.10;48.02
56334;BME280;42240;53.626;55.886;2023-05-23T01:37:49;75750.13;;;-145.10;49.05
56334;BME280;42240;53.626;55.886;2023-05-23T01:39:24;75738.25;;;-145.10;48.35
56334;BME280;42240;53.626;55.886;2023-05-23T01:40:58;75698.72;;;-145.10;46.12
56334;BME280;42240;53.626;55.886;2023-05-23T01:42:31;75694.75;;;-145.10;46.05
56334;BME280;42240;53.626;55.886;2023-05-23T01:44:06;75682.91;;;-145.10;45.88
56334;BME280;42240;53.626;55.886;2023-05-23T01:45:40;75667.06;;;-145.10;44.91
56334;BME280;42240;53.626;55.886;2023-05-23T01:47:14;75611.72;;;-145.10;44.86
56334;BME280;42240;53.626;55.886;2023-05-23T01:48:49;75588.00;;;-145.10;44.24
56334;BME280;42240;53.626;55.886;2023-05-23T01:50:23;75556.38;;;-145.10;44.38
56334;BME280;42240;53.626;55.886;2023-05-23T01:51:59;75530.66;;;-145.10;43.61
56334;BME280;42240;53.626;55.886;2023-05-23T01:53:34;75504.97;;;-145.10;42.94
56334;BME280;42240;53.626;55.886;2023-05-23T01:55:09;75528.69;;;-145.10;41.85
56334;BME280;42240;53.626;55.886;2023-05-23T01:56:44;75504.97;;;-145.10;42.53
56334;BME280;42240;53.626;55.886;2023-05-23T01:58:18;75504.97;;;-145.10;41.42
56334;BME280;42240;53.626;55.886;2023-05-23T01:59:52;75491.13;;;-145.10;41.67
56334;BME280;42240;53.626;55.886;2023-05-23T02:01:25;75433.81;;;-145.10;40.88
56334;BME280;42240;53.626;55.886;2023-05-23T02:02:59;75418.00;;;-145.10;40.07
56334;BME280;42240;53.626;55.886;2023-05-23T02:04:33;75390.31;;;-145.10;40.28
56334;BME280;42240;53.626;55.886;2023-05-23T02:06:07;75394.28;;;-145.10;39.22
56334;BME280;42240;53.626;55.886;2023-05-23T02:07:41;75319.16;;;-145.10;39.07
56334;BME280;42240;53.626;55.886;2023-05-23T02:09:15;75303.34;;;-145.10;38.89
56334;BME280;42240;53.626;55.886;2023-05-23T02:10:49;75287.53;;;-145.10;38.48
56334;BME280;42240;53.626;55.886;2023-05-23T02:12:25;75236.13;;;-145.10;37.90
56334;BME280;42240;53.626;55.886;2023-05-23T02:13:59;75196.59;;;-145.10;37.70
56334;BME280;42240;53.626;55.886;2023-05-23T02:15:33;75141.25;;;-145.10;37.56
56334;BME280;42240;53.626;55.886;2023-05-23T02:17:07;75101.72;;;-145.10;37.11
56334;BME280;42240;53.626;55.886;2023-05-23T02:18:44;75050.31;;;-145.10;36.25
56334;BME280;42240;53.626;55.886;2023-05-23T02:20:19;75034.50;;;-145.10;36.94
56334;BME280;42240;53.626;55.886;2023-05-23T02:21:52;75034.50;;;-145.10;36.59
56334;BME280;42240;53.626;55.886;2023-05-23T02:23:26;74965.31;;;-145.10;35.77
56334;BME280;42240;53.626;55.886;2023-05-23T02:25:00;74939.63;;;-145.10;34.50
56334;BME280;42240;53.626;55.886;2023-05-23T02:26:33;74870.44;;;-145.10;33.79
56334;BME280;42240;53.626;55.886;2023-05-23T02:28:07;74925.78;;;-145.10;33.19
56334;BME280;42240;53.626;55.886;2023-05-23T02:29:41;74864.53;;;-145.10;33.82
56334;BME280;42240;53.626;55.886;2023-05-23T02:31:15;74852.66;;;-145.10;33.76
56334;BME280;42240;53.626;55.886;2023-05-23T02:32:49;74830.91;;;-145.10;34.53
56334;BME280;42240;53.626;55.886;2023-05-23T02:34:24;74819.06;;;-145.10;34.14
56334;BME280;42240;53.626;55.886;2023-05-23T02:35:57;74751.84;;;-145.10;33.34
56334;BME280;42240;53.626;55.886;2023-05-23T02:37:31;74724.19;;;-145.10;33.55
56334;BME280;42240;53.626;55.886;2023-05-23T02:39:05;74658.97;;;-145.10;32.06
56334;BME280;42240;53.626;55.886;2023-05-23T02:40:39;74668.84;;;-145.10;31.34
56334;BME280;42240;53.626;55.886;2023-05-23T02:42:13;74639.19;;;-145.10;31.59
56334;BME280;42240;53.626;55.886;2023-05-23T02:43:46;74627.34;;;-145.10;30.65
56334;BME280;42240;53.626;55.886;2023-05-23T02:45:21;74629.31;;;-145.10;31.08
56334;BME280;42240;53.626;55.886;2023-05-23T02:46:54;74560.16;;;-145.10;29.91
56334;BME280;42240;53.626;55.886;2023-05-23T02:48:28;74544.34;;;-145.10;29.80
56334;BME280;42240;53.626;55.886;2023-05-23T02:50:01;74635.25;;;-145.10;29.52
56334;BME280;42240;53.626;55.886;2023-05-23T02:51:36;74536.44;;;-145.10;29.26
56334;BME280;42240;53.626;55.886;2023-05-23T02:53:10;74489.00;;;-145.10;29.60
56334;BME280;42240;53.626;55.886;2023-05-23T02:54:43;74489.00;;;-145.10;30.17
56334;BME280;42240;53.626;55.886;2023-05-23T02:56:17;74449.47;;;-145.10;30.77
56334;BME280;42240;53.626;55.886;2023-05-23T02:57:51;74449.47;;;-145.10;31.02
56334;BME280;42240;53.626;55.886;2023-05-23T02:59:25;74447.50;;;-145.10;30.96
56334;BME280;42240;53.626;55.886;2023-05-23T03:00:59;74453.41;;;-145.10;31.05
56334;BME280;42240;53.626;55.886;2023-05-23T03:02:33;74433.66;;;-145.10;30.46
56334;BME280;42240;53.626;55.886;2023-05-23T03:04:07;74415.88;;;-145.10;29.97
56334;BME280;42240;53.626;55.886;2023-05-23T03:05:40;74328.91;;;-145.10;29.58
56334;BME280;42240;53.626;55.886;2023-05-23T03:07:15;74362.50;;;-145.10;28.75
56334;BME280;42240;53.626;55.886;2023-05-23T03:09:00;74370.41;;;-145.10;29.16
56334;BME280;42240;53.626;55.886;2023-05-23T03:10:34;74372.41;;;-145.10;29.07
56334;BME280;42240;53.626;55.886;2023-05-23T03:12:08;74407.97;;;-145.10;29.32
56334;BME280;42240;53.626;55.886;2023-05-23T03:13:42;74352.63;;;-145.10;28.38
56334;BME280;42240;53.626;55.886;2023-05-23T03:15:15;74324.97;;;-145.10;28.04
56334;BME280;42240;53.626;55.886;2023-05-23T03:16:49;74461.31;;;-145.10;28.15
56334;BME280;42240;53.626;55.886;2023-05-23T03:18:23;74407.97;;;-145.10;28.00
56334;BME280;42240;53.626;55.886;2023-05-23T03:19:56;74398.09;;;-145.10;27.97
56334;BME280;42240;53.626;55.886;2023-05-23T03:21:31;74372.41;;;-145.10;28.06
56334;BME280;42240;53.626;55.886;2023-05-23T03:23:04;74429.72;;;-145.10;27.94
56334;BME280;42240;53.626;55.886;2023-05-23T03:24:38;74328.91;;;-145.10;27.66
56334;BME280;42240;53.626;55.886;2023-05-23T03:26:12;74469.22;;;-145.10;27.75
56334;BME280;42240;53.626;55.886;2023-05-23T03:27:45;74372.41;;;-145.10;27.66
56334;BME280;42240;53.626;55.886;2023-05-23T03:29:19;74267.66;;;-145.10;27.75
56334;BME280;42240;53.626;55.886;2023-05-23T03:30:53;74188.59;;;-145.10;27.09
56334;BME280;42240;53.626;55.886;2023-05-23T03:32:26;74172.78;;;-145.10;26.50
56334;BME280;42240;53.626;55.886;2023-05-23T03:34:00;74255.78;;;-145.10;26.91
56334;BME280;42240;53.626;55.886;2023-05-23T03:35:34;74311.13;;;-145.10;27.19
56334;BME280;42240;53.626;55.886;2023-05-23T03:37:08;74160.94;;;-145.10;26.48
56334;BME280;42240;53.626;55.886;2023-05-23T03:38:42;74170.81;;;-145.10;26.21
56334;BME280;42240;53.626;55.886;2023-05-23T03:40:16;74283.47;;;-145.10;26.40
56334;BME280;42240;53.626;55.886;2023-05-23T03:41:50;74271.59;;;-145.10;26.60
56334;BME280;42240;53.626;55.886;2023-05-23T03:43:24;74137.22;;;-145.10;25.79
56334;BME280;42240;53.626;55.886;2023-05-23T03:44:58;74172.78;;;-145.10;26.75
56334;BME280;42240;53.626;55.886;2023-05-23T03:46:33;74348.69;;;-145.10;25.64
56334;BME280;42240;53.626;55.886;2023-05-23T03:48:07;74265.69;;;-145.10;25.30
56334;BME280;42240;53.626;55.886;2023-05-23T03:49:41;74200.47;;;-145.10;24.84
56334;BME280;42240;53.626;55.886;2023-05-23T03:51:14;74141.16;;;-145.10;24.30
56334;BME280;42240;53.626;55.886;2023-05-23T03:52:48;74115.47;;;-145.10;24.47
56334;BME280;42240;53.626;55.886;2023-05-23T03:54:21;74178.72;;;-145.10;24.47
56334;BME280;42240;53.626;55.886;2023-05-23T03:55:56;74127.34;;;-145.10;24.90
56334;BME280;42240;53.626;55.886;2023-05-23T03:57:30;74034.47;;;-145.10;24.17
56334;BME280;42240;53.626;55.886;2023-05-23T03:59:04;74079.91;;;-145.10;23.51
56334;BME280;42240;53.626;55.886;2023-05-23T04:00:38;73992.97;;;-145.10;23.70
56334;BME280;42240;53.626;55.886;2023-05-23T04:02:13;74010.75;;;-145.10;24.04
56334;BME280;42240;53.626;55.886;2023-05-23T04:03:48;73882.31;;;-145.10;23.54
56334;BME280;42240;53.626;55.886;2023-05-23T04:05:25;73943.56;;;-145.10;23.11
56334;BME280;42240;53.626;55.886;2023-05-23T04:06:59;73937.63;;;-145.10;23.07
56334;BME280;42240;53.626;55.886;2023-05-23T04:08:33;73911.94;;;-145.10;23.33
56334;BME280;42240;53.626;55.886;2023-05-23T04:10:08;74101.66;;;-145.10;23.05
56334;BME280;42240;53.626;55.886;2023-05-23T04:11:42;74176.75;;;-145.10;23.41
56334;BME280;42240;53.626;55.886;2023-05-23T04:13:16;74095.72;;;-145.10;22.91
56334;BME280;42240;53.626;55.886;2023-05-23T04:14:49;74101.66;;;-145.10;23.62
56334;BME280;42240;53.626;55.886;2023-05-23T04:16:23;74105.59;;;-145.10;23.51
56334;BME280;42240;53.626;55.886;2023-05-23T04:18:00;74147.09;;;-145.10;23.33
56334;BME280;42240;53.626;55.886;2023-05-23T04:19:34;74216.28;;;-145.10;22.97
56334;BME280;42240;53.626;55.886;2023-05-23T04:21:08;74129.31;;;-145.10;23.37
56334;BME280;42240;53.626;55.886;2023-05-23T04:22:49;74192.56;;;-145.10;23.74
56334;BME280;42240;53.626;55.886;2023-05-23T04:24:22;74287.41;;;-145.10;23.95
56334;BME280;42240;53.626;55.886;2023-05-23T04:25:56;74216.28;;;-145.10;24.22
56334;BME280;42240;53.626;55.886;2023-05-23T04:27:34;74117.47;;;-145.10;24.23
56334;BME280;42240;53.626;55.886;2023-05-23T04:29:12;74081.88;;;-145.10;24.15
56334;BME280;42240;53.626;55.886;2023-05-23T04:30:47;74119.44;;;-145.10;23.89
56334;BME280;42240;53.626;55.886;2023-05-23T04:32:25;74123.38;;;-145.10;23.79
56334;BME280;42240;53.626;55.886;2023-05-23T04:33:59;74018.66;;;-145.10;23.90
56334;BME280;42240;53.626;55.886;2023-05-23T04:35:34;73969.25;;;-145.10;23.24
56334;BME280;42240;53.626;55.886;2023-05-23T04:37:12;74008.78;;;-145.10;22.86
56334;BME280;42240;53.626;55.886;2023-05-23T04:38:46;74006.78;;;-145.10;23.66
56334;BME280;42240;53.626;55.886;2023-05-23T04:40:19;74002.84;;;-145.10;23.60
56334;BME280;42240;53.626;55.886;2023-05-23T04:42:19;74085.84;;;-145.10;23.43
56334;BME280;42240;53.626;55.886;2023-05-23T04:44:09;74036.44;;;-145.10;23.81
56334;BME280;42240;53.626;55.886;2023-05-23T04:45:51;74212.31;;;-145.10;23.61
56334;BME280;42240;53.626;55.886;2023-05-23T04:47:35;74133.28;;;-145.10;23.81
56334;BME280;42240;53.626;55.886;2023-05-23T04:49:13;73927.75;;;-145.10;23.91
56334;BME280;42240;53.626;55.886;2023-05-23T04:50:47;73994.94;;;-145.10;23.36
56334;BME280;42240;53.626;55.886;2023-05-23T04:52:23;73947.50;;;-145.10;24.23
56334;BME280;42240;53.626;55.886;2023-05-23T04:53:58;74024.59;;;-145.10;23.51
56334;BME280;42240;53.626;55.886;2023-05-23T04:55:32;74070.03;;;-145.10;23.33
56334;BME280;42240;53.626;55.886;2023-05-23T04:57:06;74008.78;;;-145.10;23.12
56334;BME280;42240;53.626;55.886;2023-05-23T04:58:40;73975.19;;;-145.10;23.28
56334;BME280;42240;53.626;55.886;2023-05-23T05:00:16;73866.50;;;-145.10;23.00
56334;BME280;42240;53.626;55.886;2023-05-23T05:01:50;73795.34;;;-145.10;23.03
56334;BME280;42240;53.626;55.886;2023-05-23T05:03:24;73890.19;;;-145.10;23.16
56334;BME280;42240;53.626;55.886;2023-05-23T05:04:58;73848.72;;;-145.10;23.80
56334;BME280;42240;53.626;55.886;2023-05-23T05:06:31;73755.84;;;-145.10;23.54
56334;BME280;42240;53.626;55.886;2023-05-23T05:08:05;74060.16;;;-145.10;23.75
56334;BME280;42240;53.626;55.886;2023-05-23T05:09:39;74024.59;;;-145.10;23.72
56334;BME280;42240;53.626;55.886;2023-05-23T05:11:15;73971.22;;;-145.10;23.79
56334;BME280;42240;53.626;55.886;2023-05-23T05:12:49;74002.84;;;-145.10;23.28
56334;BME280;42240;53.626;55.886;2023-05-23T05:14:24;74056.19;;;-145.10;23.54
56334;BME280;42240;53.626;55.886;2023-05-23T05:15:58;73994.94;;;-145.10;23.92
56334;BME280;42240;53.626;55.886;2023-05-23T05:17:33;74085.84;;;-145.10;24.02
56334;BME280;42240;53.626;55.886;2023-05-23T05:19:12;73996.91;;;-145.10;23.76
56334;BME280;42240;53.626;55.886;2023-05-23T05:20:45;73943.56;;;-145.10;23.60
56334;BME280;42240;53.626;55.886;2023-05-23T05:22:20;73785.47;;;-145.10;23.29
56334;BME280;42240;53.626;55.886;2023-05-23T05:23:53;73828.94;;;-145.10;23.27
56334;BME280;42240;53.626;55.886;2023-05-23T05:25:27;73888.22;;;-145.10;23.36
56334;BME280;42240;53.626;55.886;2023-05-23T05:27:04;73870.44;;;-145.10;23.08
56334;BME280;42240;53.626;55.886;2023-05-23T05:28:38;74050.28;;;-145.10;23.30
56334;BME280;42240;53.626;55.886;2023-05-23T05:30:12;74036.44;;;-145.10;23.70
56334;BME280;42240;53.626;55.886;2023-05-23T05:31:58;74073.97;;;-145.10;23.45
56334;BME280;42240;53.626;55.886;2023-05-23T05:33:33;74200.47;;;-145.10;23.92
56334;BME280;42240;53.626;55.886;2023-05-23T05:35:27;74089.78;;;-145.10;24.05
56334;BME280;42240;53.626;55.886;2023-05-23T05:37:01;73874.41;;;-145.10;24.35
56334;BME280;42240;53.626;55.886;2023-05-23T05:38:34;73917.88;;;-145.10;23.18
56334;BME280;42240;53.626;55.886;2023-05-23T05:40:08;73864.50;;;-145.10;23.36
56334;BME280;42240;53.626;55.886;2023-05-23T05:41:46;73840.81;;;-145.10;23.85
56334;BME280;42240;53.626;55.886;2023-05-23T05:43:20;73943.56;;;-145.10;23.58
56334;BME280;42240;53.626;55.886;2023-05-23T05:44:54;73832.91;;;-145.10;24.02
56334;BME280;42240;53.626;55.886;2023-05-23T05:46:27;73730.16;;;-145.10;23.85
56334;BME280;42240;53.626;55.886;2023-05-23T05:48:01;73809.19;;;-145.10;23.33
56334;BME280;42240;53.626;55.886;2023-05-23T05:49:35;73700.50;;;-145.10;23.20
56334;BME280;42240;53.626;55.886;2023-05-23T05:51:09;73730.16;;;-145.10;23.70
56334;BME280;42240;53.626;55.886;2023-05-23T05:52:46;73690.63;;;-145.10;22.90
56334;BME280;42240;53.626;55.886;2023-05-23T05:54:20;73623.44;;;-145.10;23.58
56334;BME280;42240;53.626;55.886;2023-05-23T05:55:54;73728.16;;;-145.10;23.14
56334;BME280;42240;53.626;55.886;2023-05-23T05:57:28;73975.19;;;-145.10;23.75
56334;BME280;42240;53.626;55.886;2023-05-23T05:59:02;73975.19;;;-145.10;24.11
56334;BME280;42240;53.626;55.886;2023-05-23T06:00:37;73965.28;;;-145.10;24.15
56334;BME280;42240;53.626;55.886;2023-05-23T06:02:14;73917.88;;;-145.10;23.48
56334;BME280;42240;53.626;55.886;2023-05-23T06:03:49;73971.22;;;-145.10;23.69
56334;BME280;42240;53.626;55.886;2023-05-23T06:05:24;73971.22;;;-145.10;23.53
56334;BME280;42240;53.626;55.886;2023-05-23T06:06:58;73945.53;;;-145.10;23.81
56334;BME280;42240;53.626;55.886;2023-05-23T06:08:33;73979.13;;;-145.10;24.47
56334;BME280;42240;53.626;55.886;2023-05-23T06:10:07;73977.16;;;-145.10;24.48
56334;BME280;42240;53.626;55.886;2023-05-23T06:11:41;73998.88;;;-145.10;23.99
56334;BME280;42240;53.626;55.886;2023-05-23T06:13:14;74081.88;;;-145.10;23.66
56334;BME280;42240;53.626;55.886;2023-05-23T06:14:51;74042.38;;;-145.10;23.93
56334;BME280;42240;53.626;55.886;2023-05-23T06:16:25;73844.75;;;-145.10;24.14
56334;BME280;42240;53.626;55.886;2023-05-23T06:17:58;73805.22;;;-145.10;23.36
56334;BME280;42240;53.626;55.886;2023-05-23T06:19:32;74060.16;;;-145.10;23.48
56334;BME280;42240;53.626;55.886;2023-05-23T06:21:06;74174.78;;;-145.10;23.98
56334;BME280;42240;53.626;55.886;2023-05-23T06:22:40;74164.88;;;-145.10;24.38
56334;BME280;42240;53.626;55.886;2023-05-23T06:24:14;74147.09;;;-145.10;24.42
56334;BME280;42240;53.626;55.886;2023-05-23T06:25:47;74034.47;;;-145.10;24.87
56334;BME280;42240;53.626;55.886;2023-05-23T06:27:21;73983.09;;;-145.10;25.17
56334;BME280;42240;53.626;55.886;2023-05-23T06:28:54;74014.69;;;-145.10;23.42
56334;BME280;42240;53.626;55.886;2023-05-23T06:30:27;74042.38;;;-145.10;23.47
56334;BME280;42240;53.626;55.886;2023-05-23T06:32:02;74210.34;;;-145.10;23.03
56334;BME280;42240;53.626;55.886;2023-05-23T06:33:35;74245.91;;;-145.10;23.70
56334;BME280;42240;53.626;55.886;2023-05-23T06:35:08;74176.75;;;-145.10;24.03
56334;BME280;42240;53.626;55.886;2023-05-23T06:36:42;74139.19;;;-145.10;24.01
56334;BME280;42240;53.626;55.886;2023-05-23T06:38:15;74042.38;;;-145.10;23.81
56334;BME280;42240;53.626;55.886;2023-05-23T06:39:49;74046.31;;;-145.10;23.24
56334;BME280;42240;53.626;55.886;2023-05-23T06:41:23;74206.38;;;-145.10;24.45
56334;BME280;42240;53.626;55.886;2023-05-23T06:42:58;74077.94;;;-145.10;24.42
56334;BME280;42240;53.626;55.886;2023-05-23T06:44:43;74107.56;;;-145.10;22.29
56334;BME280;42240;53.626;55.886;2023-05-23T06:46:16;74123.38;;;-145.10;22.90
56334;BME280;42240;53.626;55.886;2023-05-23T06:47:50;74168.84;;;-145.10;23.41
56334;BME280;42240;53.626;55.886;2023-05-23T06:49:24;74243.94;;;-145.10;24.02
56334;BME280;42240;53.626;55.886;2023-05-23T06:50:58;74283.47;;;-145.10;24.37
56334;BME280;42240;53.626;55.886;2023-05-23T06:52:32;74307.19;;;-145.10;24.60
56334;BME280;42240;53.626;55.886;2023-05-23T06:54:09;74346.69;;;-145.10;24.81
56334;BME280;42240;53.626;55.886;2023-05-23T06:55:43;74330.88;;;-145.10;24.64
56334;BME280;42240;53.626;55.886;2023-05-23T06:57:19;74402.03;;;-145.10;24.39
56334;BME280;42240;53.626;55.886;2023-05-23T06:58:53;74350.66;;;-145.10;24.51
56334;BME280;42240;53.626;55.886;2023-05-23T07:00:26;74350.66;;;-145.10;25.08
56334;BME280;42240;53.626;55.886;2023-05-23T07:02:17;74299.28;;;-145.10;24.56
56334;BME280;42240;53.626;55.886;2023-05-23T07:03:51;74322.97;;;-145.10;24.67
56334;BME280;42240;53.626;55.886;2023-05-23T07:05:26;74360.53;;;-145.10;24.91
56334;BME280;42240;53.626;55.886;2023-05-23T07:07:01;74368.44;;;-145.10;25.03
56334;BME280;42240;53.626;55.886;2023-05-23T07:08:37;74366.47;;;-145.10;23.14
56334;BME280;42240;53.626;55.886;2023-05-23T07:10:11;74368.44;;;-145.10;22.88
56334;BME280;42240;53.626;55.886;2023-05-23T07:11:45;74334.84;;;-145.10;22.98
56334;BME280;42240;53.626;55.886;2023-05-23T07:13:19;74283.47;;;-145.10;23.43
56334;BME280;42240;53.626;55.886;2023-05-23T07:14:53;74322.97;;;-145.10;23.47
56334;BME280;42240;53.626;55.886;2023-05-23T07:16:28;74362.50;;;-145.10;23.00
56334;BME280;42240;53.626;55.886;2023-05-23T07:18:07;74376.34;;;-145.10;23.55
56334;BME280;42240;53.626;55.886;2023-05-23T07:19:40;74425.75;;;-145.10;23.68
56334;BME280;42240;53.626;55.886;2023-05-23T07:21:14;74386.22;;;-145.10;24.22
56334;BME280;42240;53.626;55.886;2023-05-23T07:22:50;74409.94;;;-145.10;23.65
56334;BME280;42240;53.626;55.886;2023-05-23T07:24:24;74469.22;;;-145.10;24.23
56334;BME280;42240;53.626;55.886;2023-05-23T07:26:01;74461.31;;;-145.10;24.35
56334;BME280;42240;53.626;55.886;2023-05-23T07:27:45;74378.31;;;-145.10;24.63
56334;BME280;42240;53.626;55.886;2023-05-23T07:29:19;74370.41;;;-145.10;23.50
56334;BME280;42240;53.626;55.886;2023-05-23T07:30:56;74344.72;;;-145.10;24.80
56334;BME280;42240;53.626;55.886;2023-05-23T07:32:30;74273.59;;;-145.10;24.78
56334;BME280;42240;53.626;55.886;2023-05-23T07:34:04;74281.47;;;-145.10;24.38
56334;BME280;42240;53.626;55.886;2023-05-23T07:35:44;74354.59;;;-145.10;24.14
56334;BME280;42240;53.626;55.886;2023-05-23T07:37:18;74354.59;;;-145.10;23.54
56334;BME280;42240;53.626;55.886;2023-05-23T07:38:51;74334.84;;;-145.10;24.68
56334;BME280;42240;53.626;55.886;2023-05-23T07:40:25;74279.50;;;-145.10;24.33
56334;BME280;42240;53.626;55.886;2023-05-23T07:41:59;74251.84;;;-145.10;24.48
56334;BME280;42240;53.626;55.886;2023-05-23T07:43:32;74198.47;;;-145.10;24.50
56334;BME280;42240;53.626;55.886;2023-05-23T07:45:06;74224.19;;;-145.10;24.21
56334;BME280;42240;53.626;55.886;2023-05-23T07:46:45;74196.50;;;-145.10;23.82
56334;BME280;42240;53.626;55.886;2023-05-23T07:48:19;74160.94;;;-145.10;24.69
56334;BME280;42240;53.626;55.886;2023-05-23T07:49:52;74313.09;;;-145.10;23.69
56334;BME280;42240;53.626;55.886;2023-05-23T07:51:27;74251.84;;;-145.10;23.78
56334;BME280;42240;53.626;55.886;2023-05-23T07:53:00;74216.28;;;-145.10;23.78
56334;BME280;42240;53.626;55.886;2023-05-23T07:54:35;74222.19;;;-145.10;24.08
56334;BME280;42240;53.626;55.886;2023-05-23T07:56:12;74176.75;;;-145.10;23.96
56334;BME280;42240;53.626;55.886;2023-05-23T07:57:47;74222.19;;;-145.10;23.62
56334;BME280;42240;53.626;55.886;2023-05-23T07:59:21;74247.88;;;-145.10;23.67
56334;BME280;42240;53.626;55.886;2023-05-23T08:00:56;74275.56;;;-145.10;23.48
56334;BME280;42240;53.626;55.886;2023-05-23T08:02:52;74380.28;;;-145.10;23.87
56334;BME280;42240;53.626;55.886;2023-05-23T08:04:31;74417.84;;;-145.10;24.24
56334;BME280;42240;53.626;55.886;2023-05-23T08:06:07;74433.66;;;-145.10;23.85
56334;BME280;42240;53.626;55.886;2023-05-23T08:07:40;74338.78;;;-145.10;24.12
56334;BME280;42240;53.626;55.886;2023-05-23T08:09:15;74370.41;;;-145.10;22.35